sensor_id;sensor_type;location;lat;lon;timestamp;P1;P2;P0
36513;PMS5003;66331;46.796;9.824;2023-01-29T00:00:12;10;10;
36513;PMS5003;66331;46.796;9.824;2023-01-29T00:02:40;14;11;
36513;PMS5003;66331;46.796;9.824;2023-01-29T00:05:07;10;10;
36513;PMS5003;66331;46.796;9.824;2023-01-29T00:07:35;11;8;
36513;PMS5003;66331;46.796;9.824;2023-01-29T00:10:02;11;7;
36513;PMS5003;66331;46.796;9.824;2023-01-29T00:12:29;10;8;
36513;PMS5003;66331;46.796;9.824;2023-01-29T00:15:02;10;10;
36513;PMS5003;66331;46.796;9.824;2023-01-29T00:17:31;8;7;
36513;PMS5003;66331;46.796;9.824;2023-01-29T00:19:58;7;5;
36513;PMS5003;66331;46.796;9.824;2023-01-29T00:22:26;7;7;
36513;PMS5003;66331;46.796;9.824;2023-01-29T00:24:55;7;5;
36513;PMS5003;66331;46.796;9.824;2023-01-29T00:27:22;13;11;
36513;PMS5003;66331;46.796;9.824;2023-01-29T00:29:49;7;7;
36513;PMS5003;66331;46.796;9.824;2023-01-29T00:32:17;10;5;
36513;PMS5003;66331;46.796;9.824;2023-01-29T00:34:44;10;8;
36513;PMS5003;66331;46.796;9.824;2023-01-29T00:37:11;5;5;
36513;PMS5003;66331;46.796;9.824;2023-01-29T00:39:39;10;8;
36513;PMS5003;66331;46.796;9.824;2023-01-29T00:42:06;7;7;
36513;PMS5003;66331;46.796;9.824;2023-01-29T00:44:33;10;8;
36513;PMS5003;66331;46.796;9.824;2023-01-29T00:47:01;7;4;
36513;PMS5003;66331;46.796;9.824;2023-01-29T00:49:29;10;10;
36513;PMS5003;66331;46.796;9.824;2023-01-29T00:51:57;8;7;
36513;PMS5003;66331;46.796;9.824;2023-01-29T00:54:24;8;5;
36513;PMS5003;66331;46.796;9.824;2023-01-29T00:56:56;10;8;
36513;PMS5003;66331;46.796;9.824;2023-01-29T00:59:24;8;7;
36513;PMS5003;66331;46.796;9.824;2023-01-29T01:01:51;11;7;
36513;PMS5003;66331;46.796;9.824;2023-01-29T01:04:19;7;5;
36513;PMS5003;66331;46.796;9.824;2023-01-29T01:06:47;4;2;
36513;PMS5003;66331;46.796;9.824;2023-01-29T01:09:16;7;7;
36513;PMS5003;66331;46.796;9.824;2023-01-29T01:11:46;10;10;
36513;PMS5003;66331;46.796;9.824;2023-01-29T01:14:15;6;4;
36513;PMS5003;66331;46.796;9.824;2023-01-29T01:16:43;7;7;
36513;PMS5003;66331;46.796;9.824;2023-01-29T01:19:11;7;7;
36513;PMS5003;66331;46.796;9.824;2023-01-29T01:21:38;7;4;
36513;PMS5003;66331;46.796;9.824;2023-01-29T01:24:05;7;7;
36513;PMS5003;66331;46.796;9.824;2023-01-29T01:26:34;7;7;
36513;PMS5003;66331;46.796;9.824;2023-01-29T01:29:02;6;4;
36513;PMS5003;66331;46.796;9.824;2023-01-29T01:31:30;5;5;
36513;PMS5003;66331;46.796;9.824;2023-01-29T01:33:59;7;7;
36513;PMS5003;66331;46.796;9.824;2023-01-29T01:36:28;6;6;
36513;PMS5003;66331;46.796;9.824;2023-01-29T01:38:55;10;9;
36513;PMS5003;66331;46.796;9.824;2023-01-29T01:41:24;9;9;
36513;PMS5003;66331;46.796;9.824;2023-01-29T01:43:53;10;10;
36513;PMS5003;66331;46.796;9.824;2023-01-29T01:46:23;10;10;
36513;PMS5003;66331;46.796;9.824;2023-01-29T01:48:55;8;8;
36513;PMS5003;66331;46.796;9.824;2023-01-29T01:51:28;12;7;
36513;PMS5003;66331;46.796;9.824;2023-01-29T01:53:59;9;7;
36513;PMS5003;66331;46.796;9.824;2023-01-29T01:56:33;7;7;
36513;PMS5003;66331;46.796;9.824;2023-01-29T01:59:06;12;12;
36513;PMS5003;66331;46.796;9.824;2023-01-29T02:01:36;9;7;
36513;PMS5003;66331;46.796;9.824;2023-01-29T02:04:08;10;7;
36513;PMS5003;66331;46.796;9.824;2023-01-29T02:06:38;10;9;
36513;PMS5003;66331;46.796;9.824;2023-01-29T02:09:08;6;6;
36513;PMS5003;66331;46.796;9.824;2023-01-29T02:11:41;12;10;
36513;PMS5003;66331;46.796;9.824;2023-01-29T02:14:08;10;7;
36513;PMS5003;66331;46.796;9.824;2023-01-29T02:16:38;6;6;
36513;PMS5003;66331;46.796;9.824;2023-01-29T02:19:08;7;7;
36513;PMS5003;66331;46.796;9.824;2023-01-29T02:21:49;4;4;
36513;PMS5003;66331;46.796;9.824;2023-01-29T02:25:41;10;7;
36513;PMS5003;66331;46.796;9.824;2023-01-29T02:28:24;4;4;
36513;PMS5003;66331;46.796;9.824;2023-01-29T02:31:00;9;7;
36513;PMS5003;66331;46.796;9.824;2023-01-29T02:33:38;9;6;
36513;PMS5003;66331;46.796;9.824;2023-01-29T02:36:16;4;4;
36513;PMS5003;66331;46.796;9.824;2023-01-29T02:38:54;3;3;
36513;PMS5003;66331;46.796;9.824;2023-01-29T02:41:31;6;3;
36513;PMS5003;66331;46.796;9.824;2023-01-29T02:44:09;6;6;
36513;PMS5003;66331;46.796;9.824;2023-01-29T02:46:47;9;6;
36513;PMS5003;66331;46.796;9.824;2023-01-29T02:49:22;6;6;
36513;PMS5003;66331;46.796;9.824;2023-01-29T02:51:59;4;4;
36513;PMS5003;66331;46.796;9.824;2023-01-29T02:54:36;7;6;
36513;PMS5003;66331;46.796;9.824;2023-01-29T02:57:10;4;4;
36513;PMS5003;66331;46.796;9.824;2023-01-29T02:59:45;7;6;
36513;PMS5003;66331;46.796;9.824;2023-01-29T03:02:16;7;6;
36513;PMS5003;66331;46.796;9.824;2023-01-29T03:04:48;7;6;
36513;PMS5003;66331;46.796;9.824;2023-01-29T03:07:24;10;7;
36513;PMS5003;66331;46.796;9.824;2023-01-29T03:09:55;9;7;
36513;PMS5003;66331;46.796;9.824;2023-01-29T03:12:25;9;7;
36513;PMS5003;66331;46.796;9.824;2023-01-29T03:14:55;6;4;
36513;PMS5003;66331;46.796;9.824;2023-01-29T03:17:26;6;6;
36513;PMS5003;66331;46.796;9.824;2023-01-29T03:20:01;6;6;
36513;PMS5003;66331;46.796;9.824;2023-01-29T03:22:30;7;6;
36513;PMS5003;66331;46.796;9.824;2023-01-29T03:24:58;4;4;
36513;PMS5003;66331;46.796;9.824;2023-01-29T03:27:30;6;6;
36513;PMS5003;66331;46.796;9.824;2023-01-29T03:30:01;7;6;
36513;PMS5003;66331;46.796;9.824;2023-01-29T03:32:30;10;7;
36513;PMS5003;66331;46.796;9.824;2023-01-29T03:35:00;6;4;
36513;PMS5003;66331;46.796;9.824;2023-01-29T03:37:30;4;4;
36513;PMS5003;66331;46.796;9.824;2023-01-29T03:40:02;7;7;
36513;PMS5003;66331;46.796;9.824;2023-01-29T03:42:33;4;4;
36513;PMS5003;66331;46.796;9.824;2023-01-29T03:45:11;6;6;
36513;PMS5003;66331;46.796;9.824;2023-01-29T03:47:46;6;6;
36513;PMS5003;66331;46.796;9.824;2023-01-29T03:50:26;4;3;
36513;PMS5003;66331;46.796;9.824;2023-01-29T03:53:01;7;6;
36513;PMS5003;66331;46.796;9.824;2023-01-29T03:55:36;6;4;
36513;PMS5003;66331;46.796;9.824;2023-01-29T03:58:12;4;4;
36513;PMS5003;66331;46.796;9.824;2023-01-29T04:00:49;6;6;
36513;PMS5003;66331;46.796;9.824;2023-01-29T04:03:20;7;6;
36513;PMS5003;66331;46.796;9.824;2023-01-29T04:05:51;9;7;
36513;PMS5003;66331;46.796;9.824;2023-01-29T04:08:24;7;6;
36513;PMS5003;66331;46.796;9.824;2023-01-29T04:10:55;7;6;
36513;PMS5003;66331;46.796;9.824;2023-01-29T04:13:24;7;7;
36513;PMS5003;66331;46.796;9.824;2023-01-29T04:15:53;6;4;
36513;PMS5003;66331;46.796;9.824;2023-01-29T04:18:23;6;6;
36513;PMS5003;66331;46.796;9.824;2023-01-29T04:20:50;6;6;
36513;PMS5003;66331;46.796;9.824;2023-01-29T04:23:19;6;4;
36513;PMS5003;66331;46.796;9.824;2023-01-29T04:25:51;7;4;
36513;PMS5003;66331;46.796;9.824;2023-01-29T04:28:39;6;4;
36513;PMS5003;66331;46.796;9.824;2023-01-29T04:31:15;7;6;
36513;PMS5003;66331;46.796;9.824;2023-01-29T04:33:43;4;3;
36513;PMS5003;66331;46.796;9.824;2023-01-29T04:36:23;7;6;
36513;PMS5003;66331;46.796;9.824;2023-01-29T04:39:01;7;6;
36513;PMS5003;66331;46.796;9.824;2023-01-29T04:41:37;9;9;
36513;PMS5003;66331;46.796;9.824;2023-01-29T04:44:14;7;4;
36513;PMS5003;66331;46.796;9.824;2023-01-29T04:46:47;4;4;
36513;PMS5003;66331;46.796;9.824;2023-01-29T04:49:23;9;7;
36513;PMS5003;66331;46.796;9.824;2023-01-29T04:51:59;7;6;
36513;PMS5003;66331;46.796;9.824;2023-01-29T04:54:34;9;7;
36513;PMS5003;66331;46.796;9.824;2023-01-29T04:57:17;6;6;
36513;PMS5003;66331;46.796;9.824;2023-01-29T04:59:52;7;7;
36513;PMS5003;66331;46.796;9.824;2023-01-29T05:02:26;9;9;
36513;PMS5003;66331;46.796;9.824;2023-01-29T05:04:54;10;9;
36513;PMS5003;66331;46.796;9.824;2023-01-29T05:07:23;10;7;
36513;PMS5003;66331;46.796;9.824;2023-01-29T05:09:53;4;4;
36513;PMS5003;66331;46.796;9.824;2023-01-29T05:12:22;9;9;
36513;PMS5003;66331;46.796;9.824;2023-01-29T05:14:52;7;7;
36513;PMS5003;66331;46.796;9.824;2023-01-29T05:17:23;9;9;
36513;PMS5003;66331;46.796;9.824;2023-01-29T05:19:50;9;7;
36513;PMS5003;66331;46.796;9.824;2023-01-29T05:22:17;10;10;
36513;PMS5003;66331;46.796;9.824;2023-01-29T05:24:44;10;7;
36513;PMS5003;66331;46.796;9.824;2023-01-29T05:27:13;9;9;
36513;PMS5003;66331;46.796;9.824;2023-01-29T05:29:43;9;7;
36513;PMS5003;66331;46.796;9.824;2023-01-29T05:32:11;7;6;
36513;PMS5003;66331;46.796;9.824;2023-01-29T05:34:39;4;4;
36513;PMS5003;66331;46.796;9.824;2023-01-29T05:37:07;6;4;
36513;PMS5003;66331;46.796;9.824;2023-01-29T05:39:35;6;6;
36513;PMS5003;66331;46.796;9.824;2023-01-29T05:42:02;4;4;
36513;PMS5003;66331;46.796;9.824;2023-01-29T05:44:30;10;9;
36513;PMS5003;66331;46.796;9.824;2023-01-29T05:46:57;9;7;
36513;PMS5003;66331;46.796;9.824;2023-01-29T05:49:25;6;6;
36513;PMS5003;66331;46.796;9.824;2023-01-29T05:51:52;9;7;
36513;PMS5003;66331;46.796;9.824;2023-01-29T05:54:19;4;4;
36513;PMS5003;66331;46.796;9.824;2023-01-29T05:56:47;7;6;
36513;PMS5003;66331;46.796;9.824;2023-01-29T05:59:15;7;6;
36513;PMS5003;66331;46.796;9.824;2023-01-29T06:01:42;4;4;
36513;PMS5003;66331;46.796;9.824;2023-01-29T06:04:09;7;6;
36513;PMS5003;66331;46.796;9.824;2023-01-29T06:06:37;21;18;
36513;PMS5003;66331;46.796;9.824;2023-01-29T06:09:04;10;9;
36513;PMS5003;66331;46.796;9.824;2023-01-29T06:11:31;16;15;
36513;PMS5003;66331;46.796;9.824;2023-01-29T06:13:59;13;12;
36513;PMS5003;66331;46.796;9.824;2023-01-29T06:16:26;13;10;
36513;PMS5003;66331;46.796;9.824;2023-01-29T06:18:54;12;7;
36513;PMS5003;66331;46.796;9.824;2023-01-29T06:21:21;7;7;
36513;PMS5003;66331;46.796;9.824;2023-01-29T06:23:50;9;9;
36513;PMS5003;66331;46.796;9.824;2023-01-29T06:26:19;7;7;
36513;PMS5003;66331;46.796;9.824;2023-01-29T06:28:47;9;7;
36513;PMS5003;66331;46.796;9.824;2023-01-29T06:31:14;6;6;
36513;PMS5003;66331;46.796;9.824;2023-01-29T06:33:41;7;7;
36513;PMS5003;66331;46.796;9.824;2023-01-29T06:36:09;9;7;
36513;PMS5003;66331;46.796;9.824;2023-01-29T06:38:36;7;6;
36513;PMS5003;66331;46.796;9.824;2023-01-29T06:41:08;10;9;
36513;PMS5003;66331;46.796;9.824;2023-01-29T06:43:36;12;10;
36513;PMS5003;66331;46.796;9.824;2023-01-29T06:46:05;12;10;
36513;PMS5003;66331;46.796;9.824;2023-01-29T06:48:33;9;9;
36513;PMS5003;66331;46.796;9.824;2023-01-29T06:51:01;10;9;
36513;PMS5003;66331;46.796;9.824;2023-01-29T06:53:28;9;9;
36513;PMS5003;66331;46.796;9.824;2023-01-29T06:55:56;12;10;
36513;PMS5003;66331;46.796;9.824;2023-01-29T06:58:23;4;4;
36513;PMS5003;66331;46.796;9.824;2023-01-29T07:00:51;9;7;
36513;PMS5003;66331;46.796;9.824;2023-01-29T07:03:18;9;7;
36513;PMS5003;66331;46.796;9.824;2023-01-29T07:05:49;6;6;
36513;PMS5003;66331;46.796;9.824;2023-01-29T07:08:17;3;3;
36513;PMS5003;66331;46.796;9.824;2023-01-29T07:10:44;6;4;
36513;PMS5003;66331;46.796;9.824;2023-01-29T07:13:11;7;6;
36513;PMS5003;66331;46.796;9.824;2023-01-29T07:15:38;6;6;
36513;PMS5003;66331;46.796;9.824;2023-01-29T07:18:04;4;4;
36513;PMS5003;66331;46.796;9.824;2023-01-29T07:20:31;7;4;
36513;PMS5003;66331;46.796;9.824;2023-01-29T07:22:58;12;9;
36513;PMS5003;66331;46.796;9.824;2023-01-29T07:25:25;7;7;
36513;PMS5003;66331;46.796;9.824;2023-01-29T07:27:52;4;4;
36513;PMS5003;66331;46.796;9.824;2023-01-29T07:30:19;7;7;
36513;PMS5003;66331;46.796;9.824;2023-01-29T07:32:47;6;4;
36513;PMS5003;66331;46.796;9.824;2023-01-29T07:35:14;7;6;
36513;PMS5003;66331;46.796;9.824;2023-01-29T07:37:42;6;6;
36513;PMS5003;66331;46.796;9.824;2023-01-29T07:40:09;12;9;
36513;PMS5003;66331;46.796;9.824;2023-01-29T07:42:37;9;9;
36513;PMS5003;66331;46.796;9.824;2023-01-29T07:45:05;10;6;
36513;PMS5003;66331;46.796;9.824;2023-01-29T07:47:33;10;9;
36513;PMS5003;66331;46.796;9.824;2023-01-29T07:50:00;9;7;
36513;PMS5003;66331;46.796;9.824;2023-01-29T07:52:28;9;7;
36513;PMS5003;66331;46.796;9.824;2023-01-29T07:54:56;12;10;
36513;PMS5003;66331;46.796;9.824;2023-01-29T07:57:23;9;7;
36513;PMS5003;66331;46.796;9.824;2023-01-29T07:59:51;9;9;
36513;PMS5003;66331;46.796;9.824;2023-01-29T08:02:17;9;7;
36513;PMS5003;66331;46.796;9.824;2023-01-29T08:04:44;10;9;
36513;PMS5003;66331;46.796;9.824;2023-01-29T08:07:12;10;10;
36513;PMS5003;66331;46.796;9.824;2023-01-29T08:09:38;9;7;
36513;PMS5003;66331;46.796;9.824;2023-01-29T08:12:05;15;12;
36513;PMS5003;66331;46.796;9.824;2023-01-29T08:14:32;12;10;
36513;PMS5003;66331;46.796;9.824;2023-01-29T08:16:59;10;10;
36513;PMS5003;66331;46.796;9.824;2023-01-29T08:19:26;15;10;
36513;PMS5003;66331;46.796;9.824;2023-01-29T08:21:53;9;9;
36513;PMS5003;66331;46.796;9.824;2023-01-29T08:24:20;12;10;
36513;PMS5003;66331;46.796;9.824;2023-01-29T08:26:48;15;10;
36513;PMS5003;66331;46.796;9.824;2023-01-29T08:29:15;10;9;
36513;PMS5003;66331;46.796;9.824;2023-01-29T08:31:43;12;10;
36513;PMS5003;66331;46.796;9.824;2023-01-29T08:34:10;12;10;
36513;PMS5003;66331;46.796;9.824;2023-01-29T08:36:37;10;10;
36513;PMS5003;66331;46.796;9.824;2023-01-29T08:39:04;10;10;
36513;PMS5003;66331;46.796;9.824;2023-01-29T08:41:31;12;10;
36513;PMS5003;66331;46.796;9.824;2023-01-29T08:43:59;10;9;
36513;PMS5003;66331;46.796;9.824;2023-01-29T08:46:26;16;13;
36513;PMS5003;66331;46.796;9.824;2023-01-29T08:48:54;13;12;
36513;PMS5003;66331;46.796;9.824;2023-01-29T08:51:21;16;13;
36513;PMS5003;66331;46.796;9.824;2023-01-29T08:53:49;20;17;
36513;PMS5003;66331;46.796;9.824;2023-01-29T08:56:16;36;27;
36513;PMS5003;66331;46.796;9.824;2023-01-29T08:58:44;19;18;
36513;PMS5003;66331;46.796;9.824;2023-01-29T09:01:11;22;18;
36513;PMS5003;66331;46.796;9.824;2023-01-29T09:03:39;28;22;
36513;PMS5003;66331;46.796;9.824;2023-01-29T09:06:07;61;52;
36513;PMS5003;66331;46.796;9.824;2023-01-29T09:08:36;69;48;
36513;PMS5003;66331;46.796;9.824;2023-01-29T09:11:04;52;42;
36513;PMS5003;66331;46.796;9.824;2023-01-29T09:13:32;28;24;
36513;PMS5003;66331;46.796;9.824;2023-01-29T09:15:59;29;28;
36513;PMS5003;66331;46.796;9.824;2023-01-29T09:18:27;16;16;
36513;PMS5003;66331;46.796;9.824;2023-01-29T09:20:55;19;17;
36513;PMS5003;66331;46.796;9.824;2023-01-29T09:23:22;17;14;
36513;PMS5003;66331;46.796;9.824;2023-01-29T09:25:49;14;13;
36513;PMS5003;66331;46.796;9.824;2023-01-29T09:28:16;14;13;
36513;PMS5003;66331;46.796;9.824;2023-01-29T09:30:44;13;13;
36513;PMS5003;66331;46.796;9.824;2023-01-29T09:33:11;14;11;
36513;PMS5003;66331;46.796;9.824;2023-01-29T09:35:39;8;8;
36513;PMS5003;66331;46.796;9.824;2023-01-29T09:38:07;8;7;
36513;PMS5003;66331;46.796;9.824;2023-01-29T09:40:37;17;12;
36513;PMS5003;66331;46.796;9.824;2023-01-29T09:43:15;12;10;
36513;PMS5003;66331;46.796;9.824;2023-01-29T09:45:49;10;8;
36513;PMS5003;66331;46.796;9.824;2023-01-29T09:48:21;12;11;
36513;PMS5003;66331;46.796;9.824;2023-01-29T09:50:52;8;7;
36513;PMS5003;66331;46.796;9.824;2023-01-29T09:53:23;11;8;
36513;PMS5003;66331;46.796;9.824;2023-01-29T09:55:57;4;4;
36513;PMS5003;66331;46.796;9.824;2023-01-29T09:58:29;8;7;
36513;PMS5003;66331;46.796;9.824;2023-01-29T10:01:01;8;7;
36513;PMS5003;66331;46.796;9.824;2023-01-29T10:03:42;4;4;
36513;PMS5003;66331;46.796;9.824;2023-01-29T10:06:23;4;4;
36513;PMS5003;66331;46.796;9.824;2023-01-29T10:09:03;6;6;
36513;PMS5003;66331;46.796;9.824;2023-01-29T10:12:00;6;5;
36513;PMS5003;66331;46.796;9.824;2023-01-29T10:14:42;9;6;
36513;PMS5003;66331;46.796;9.824;2023-01-29T10:17:23;5;5;
36513;PMS5003;66331;46.796;9.824;2023-01-29T10:20:05;11;11;
36513;PMS5003;66331;46.796;9.824;2023-01-29T10:22:46;8;8;
36513;PMS5003;66331;46.796;9.824;2023-01-29T10:25:22;8;6;
36513;PMS5003;66331;46.796;9.824;2023-01-29T10:27:50;6;6;
36513;PMS5003;66331;46.796;9.824;2023-01-29T10:30:20;6;6;
36513;PMS5003;66331;46.796;9.824;2023-01-29T10:32:55;6;6;
36513;PMS5003;66331;46.796;9.824;2023-01-29T10:35:28;5;4;
36513;PMS5003;66331;46.796;9.824;2023-01-29T10:38:01;4;2;
36513;PMS5003;66331;46.796;9.824;2023-01-29T10:40:43;2;1;
36513;PMS5003;66331;46.796;9.824;2023-01-29T10:43:15;1;1;
36513;PMS5003;66331;46.796;9.824;2023-01-29T10:45:51;2;1;
36513;PMS5003;66331;46.796;9.824;2023-01-29T10:48:33;2;2;
36513;PMS5003;66331;46.796;9.824;2023-01-29T10:51:11;0;0;
36513;PMS5003;66331;46.796;9.824;2023-01-29T10:53:52;1;1;
36513;PMS5003;66331;46.796;9.824;2023-01-29T10:56:34;1;1;
36513;PMS5003;66331;46.796;9.824;2023-01-29T10:59:09;0;0;
36513;PMS5003;66331;46.796;9.824;2023-01-29T11:01:56;0;0;
36513;PMS5003;66331;46.796;9.824;2023-01-29T11:04:24;2;1;
36513;PMS5003;66331;46.796;9.824;2023-01-29T11:06:52;2;1;
36513;PMS5003;66331;46.796;9.824;2023-01-29T11:09:22;1;1;
36513;PMS5003;66331;46.796;9.824;2023-01-29T11:11:56;2;2;
36513;PMS5003;66331;46.796;9.824;2023-01-29T11:14:27;3;3;
36513;PMS5003;66331;46.796;9.824;2023-01-29T11:16:59;1;1;
36513;PMS5003;66331;46.796;9.824;2023-01-29T11:19:36;2;2;
36513;PMS5003;66331;46.796;9.824;2023-01-29T11:22:04;1;1;
36513;PMS5003;66331;46.796;9.824;2023-01-29T11:24:37;2;2;
36513;PMS5003;66331;46.796;9.824;2023-01-29T11:27:12;2;1;
36513;PMS5003;66331;46.796;9.824;2023-01-29T11:29:42;1;1;
36513;PMS5003;66331;46.796;9.824;2023-01-29T11:32:11;1;1;
36513;PMS5003;66331;46.796;9.824;2023-01-29T11:34:58;1;1;
36513;PMS5003;66331;46.796;9.824;2023-01-29T11:37:34;1;1;
36513;PMS5003;66331;46.796;9.824;2023-01-29T11:40:27;1;1;
36513;PMS5003;66331;46.796;9.824;2023-01-29T11:43:17;2;2;
36513;PMS5003;66331;46.796;9.824;2023-01-29T11:45:47;0;0;
36513;PMS5003;66331;46.796;9.824;2023-01-29T11:48:17;1;1;
36513;PMS5003;66331;46.796;9.824;2023-01-29T11:50:50;2;2;
36513;PMS5003;66331;46.796;9.824;2023-01-29T11:53:22;0;0;
36513;PMS5003;66331;46.796;9.824;2023-01-29T11:55:52;1;0;
36513;PMS5003;66331;46.796;9.824;2023-01-29T11:58:22;0;0;
36513;PMS5003;66331;46.796;9.824;2023-01-29T12:00:52;0;0;
36513;PMS5003;66331;46.796;9.824;2023-01-29T12:03:23;0;0;
36513;PMS5003;66331;46.796;9.824;2023-01-29T12:05:59;0;0;
36513;PMS5003;66331;46.796;9.824;2023-01-29T12:08:31;0;0;
36513;PMS5003;66331;46.796;9.824;2023-01-29T12:11:10;0;0;
36513;PMS5003;66331;46.796;9.824;2023-01-29T12:13:40;0;0;
36513;PMS5003;66331;46.796;9.824;2023-01-29T12:16:10;0;0;
36513;PMS5003;66331;46.796;9.824;2023-01-29T12:18:43;0;0;
36513;PMS5003;66331;46.796;9.824;2023-01-29T12:21:17;0;0;
36513;PMS5003;66331;46.796;9.824;2023-01-29T12:23:52;0;0;
36513;PMS5003;66331;46.796;9.824;2023-01-29T12:26:26;0;0;
36513;PMS5003;66331;46.796;9.824;2023-01-29T12:29:16;0;0;
36513;PMS5003;66331;46.796;9.824;2023-01-29T12:31:54;0;0;
36513;PMS5003;66331;46.796;9.824;2023-01-29T12:34:33;0;0;
36513;PMS5003;66331;46.796;9.824;2023-01-29T12:37:09;0;0;
36513;PMS5003;66331;46.796;9.824;2023-01-29T12:39:41;0;0;
36513;PMS5003;66331;46.796;9.824;2023-01-29T12:42:09;0;0;
36513;PMS5003;66331;46.796;9.824;2023-01-29T12:44:43;1;1;
36513;PMS5003;66331;46.796;9.824;2023-01-29T12:47:15;0;0;
36513;PMS5003;66331;46.796;9.824;2023-01-29T12:49:47;0;0;
36513;PMS5003;66331;46.796;9.824;2023-01-29T12:52:20;0;0;
36513;PMS5003;66331;46.796;9.824;2023-01-29T12:54:52;1;0;
36513;PMS5003;66331;46.796;9.824;2023-01-29T12:57:24;0;0;
36513;PMS5003;66331;46.796;9.824;2023-01-29T13:00:03;0;0;
36513;PMS5003;66331;46.796;9.824;2023-01-29T13:02:34;0;0;
36513;PMS5003;66331;46.796;9.824;2023-01-29T13:05:08;0;0;
36513;PMS5003;66331;46.796;9.824;2023-01-29T13:07:46;0;0;
36513;PMS5003;66331;46.796;9.824;2023-01-29T13:10:18;0;0;
36513;PMS5003;66331;46.796;9.824;2023-01-29T13:12:53;0;0;
36513;PMS5003;66331;46.796;9.824;2023-01-29T13:15:25;2;2;
36513;PMS5003;66331;46.796;9.824;2023-01-29T13:17:57;0;0;
36513;PMS5003;66331;46.796;9.824;2023-01-29T13:20:31;1;1;
36513;PMS5003;66331;46.796;9.824;2023-01-29T13:23:03;2;1;
36513;PMS5003;66331;46.796;9.824;2023-01-29T13:25:42;0;0;
36513;PMS5003;66331;46.796;9.824;2023-01-29T13:28:14;1;0;
36513;PMS5003;66331;46.796;9.824;2023-01-29T13:30:43;0;0;
36513;PMS5003;66331;46.796;9.824;2023-01-29T13:33:14;0;0;
36513;PMS5003;66331;46.796;9.824;2023-01-29T13:35:48;0;0;
36513;PMS5003;66331;46.796;9.824;2023-01-29T13:38:26;0;0;
36513;PMS5003;66331;46.796;9.824;2023-01-29T13:40:57;0;0;
36513;PMS5003;66331;46.796;9.824;2023-01-29T13:43:28;1;1;
36513;PMS5003;66331;46.796;9.824;2023-01-29T13:46:01;2;0;
36513;PMS5003;66331;46.796;9.824;2023-01-29T13:48:34;0;0;
36513;PMS5003;66331;46.796;9.824;2023-01-29T13:51:09;0;0;
36513;PMS5003;66331;46.796;9.824;2023-01-29T13:53:39;1;1;
36513;PMS5003;66331;46.796;9.824;2023-01-29T13:56:43;0;0;
36513;PMS5003;66331;46.796;9.824;2023-01-29T13:59:22;2;2;
36513;PMS5003;66331;46.796;9.824;2023-01-29T14:02:18;0;0;
36513;PMS5003;66331;46.796;9.824;2023-01-29T14:04:47;1;1;
36513;PMS5003;66331;46.796;9.824;2023-01-29T14:07:47;1;1;
36513;PMS5003;66331;46.796;9.824;2023-01-29T14:10:17;1;1;
36513;PMS5003;66331;46.796;9.824;2023-01-29T14:12:47;0;0;
36513;PMS5003;66331;46.796;9.824;2023-01-29T14:15:19;1;0;
36513;PMS5003;66331;46.796;9.824;2023-01-29T14:18:20;0;0;
36513;PMS5003;66331;46.796;9.824;2023-01-29T14:20:54;0;0;
36513;PMS5003;66331;46.796;9.824;2023-01-29T14:23:41;1;1;
36513;PMS5003;66331;46.796;9.824;2023-01-29T14:26:28;1;0;
36513;PMS5003;66331;46.796;9.824;2023-01-29T14:29:00;1;0;
36513;PMS5003;66331;46.796;9.824;2023-01-29T14:31:34;0;0;
36513;PMS5003;66331;46.796;9.824;2023-01-29T14:34:11;0;0;
36513;PMS5003;66331;46.796;9.824;2023-01-29T14:36:43;0;0;
36513;PMS5003;66331;46.796;9.824;2023-01-29T14:39:18;0;0;
36513;PMS5003;66331;46.796;9.824;2023-01-29T14:41:50;0;0;
36513;PMS5003;66331;46.796;9.824;2023-01-29T14:44:56;0;0;
36513;PMS5003;66331;46.796;9.824;2023-01-29T14:47:58;1;0;
36513;PMS5003;66331;46.796;9.824;2023-01-29T14:50:44;1;0;
36513;PMS5003;66331;46.796;9.824;2023-01-29T14:53:17;0;0;
36513;PMS5003;66331;46.796;9.824;2023-01-29T14:55:49;0;0;
36513;PMS5003;66331;46.796;9.824;2023-01-29T14:58:22;1;0;
36513;PMS5003;66331;46.796;9.824;2023-01-29T15:00:54;1;1;
36513;PMS5003;66331;46.796;9.824;2023-01-29T15:03:27;0;0;
36513;PMS5003;66331;46.796;9.824;2023-01-29T15:06:01;2;1;
36513;PMS5003;66331;46.796;9.824;2023-01-29T15:08:32;0;0;
36513;PMS5003;66331;46.796;9.824;2023-01-29T15:11:06;1;1;
36513;PMS5003;66331;46.796;9.824;2023-01-29T15:13:41;1;1;
36513;PMS5003;66331;46.796;9.824;2023-01-29T15:16:13;1;0;
36513;PMS5003;66331;46.796;9.824;2023-01-29T15:18:44;2;1;
36513;PMS5003;66331;46.796;9.824;2023-01-29T15:21:14;0;0;
36513;PMS5003;66331;46.796;9.824;2023-01-29T15:23:43;1;1;
36513;PMS5003;66331;46.796;9.824;2023-01-29T15:26:11;1;1;
36513;PMS5003;66331;46.796;9.824;2023-01-29T15:28:50;2;2;
36513;PMS5003;66331;46.796;9.824;2023-01-29T15:31:20;0;0;
36513;PMS5003;66331;46.796;9.824;2023-01-29T15:33:49;1;1;
36513;PMS5003;66331;46.796;9.824;2023-01-29T15:36:20;1;1;
36513;PMS5003;66331;46.796;9.824;2023-01-29T15:38:49;0;0;
36513;PMS5003;66331;46.796;9.824;2023-01-29T15:41:41;1;1;
36513;PMS5003;66331;46.796;9.824;2023-01-29T15:44:10;2;1;
36513;PMS5003;66331;46.796;9.824;2023-01-29T15:46:39;1;1;
36513;PMS5003;66331;46.796;9.824;2023-01-29T15:49:10;4;3;
36513;PMS5003;66331;46.796;9.824;2023-01-29T15:51:43;3;3;
36513;PMS5003;66331;46.796;9.824;2023-01-29T15:54:12;3;2;
36513;PMS5003;66331;46.796;9.824;2023-01-29T15:56:42;3;3;
36513;PMS5003;66331;46.796;9.824;2023-01-29T15:59:14;8;6;
36513;PMS5003;66331;46.796;9.824;2023-01-29T16:01:44;7;6;
36513;PMS5003;66331;46.796;9.824;2023-01-29T16:04:12;7;6;
36513;PMS5003;66331;46.796;9.824;2023-01-29T16:06:44;4;4;
36513;PMS5003;66331;46.796;9.824;2023-01-29T16:09:14;4;4;
36513;PMS5003;66331;46.796;9.824;2023-01-29T16:11:44;7;4;
36513;PMS5003;66331;46.796;9.824;2023-01-29T16:14:13;11;8;
36513;PMS5003;66331;46.796;9.824;2023-01-29T16:16:45;11;9;
36513;PMS5003;66331;46.796;9.824;2023-01-29T16:19:13;8;8;
36513;PMS5003;66331;46.796;9.824;2023-01-29T16:21:49;8;7;
36513;PMS5003;66331;46.796;9.824;2023-01-29T16:24:21;8;8;
36513;PMS5003;66331;46.796;9.824;2023-01-29T16:26:49;7;7;
36513;PMS5003;66331;46.796;9.824;2023-01-29T16:29:19;7;6;
36513;PMS5003;66331;46.796;9.824;2023-01-29T16:31:49;6;6;
36513;PMS5003;66331;46.796;9.824;2023-01-29T16:34:21;10;8;
36513;PMS5003;66331;46.796;9.824;2023-01-29T16:36:52;11;11;
36513;PMS5003;66331;46.796;9.824;2023-01-29T16:39:21;11;7;
36513;PMS5003;66331;46.796;9.824;2023-01-29T16:42:24;11;11;
36513;PMS5003;66331;46.796;9.824;2023-01-29T16:44:54;12;12;
36513;PMS5003;66331;46.796;9.824;2023-01-29T16:47:26;10;8;
36513;PMS5003;66331;46.796;9.824;2023-01-29T16:49:56;10;8;
36513;PMS5003;66331;46.796;9.824;2023-01-29T16:52:25;15;12;
36513;PMS5003;66331;46.796;9.824;2023-01-29T16:54:57;25;21;
36513;PMS5003;66331;46.796;9.824;2023-01-29T16:57:27;26;23;
36513;PMS5003;66331;46.796;9.824;2023-01-29T16:59:57;13;12;
36513;PMS5003;66331;46.796;9.824;2023-01-29T17:02:27;10;8;
36513;PMS5003;66331;46.796;9.824;2023-01-29T17:04:58;11;6;
36513;PMS5003;66331;46.796;9.824;2023-01-29T17:07:28;5;5;
36513;PMS5003;66331;46.796;9.824;2023-01-29T17:09:57;17;16;
36513;PMS5003;66331;46.796;9.824;2023-01-29T17:12:27;46;37;
36513;PMS5003;66331;46.796;9.824;2023-01-29T17:14:56;12;11;